Time;durP1;ratioP1;P1;durP2;ratioP2;P2;SDS_P1;SDS_P2;PMS_P1;PMS_P2;Temp;Humidity;BMP_temperature;BMP_pressure;BME280_temperature;BME280_humidity;BME280_pressure;Samples;Min_cycle;Max_cycle;Signal;HPM_P1;HPM_P2
2021/12/06 00:02:08;;;;;;;7.33;6.63;;;4.60;99.90;;;;;;6274788;22;20455;-51
2021/12/06 00:04:38;;;;;;;7.85;6.40;;;4.60;99.90;;;;;;6272698;22;20379;-51
2021/12/06 00:07:09;;;;;;;7.28;5.70;;;4.30;99.90;;;;;;6274222;22;20516;-52
2021/12/06 00:09:37;;;;;;;7.32;6.63;;;4.00;99.90;;;;;;6284833;22;20137;-51
2021/12/06 00:12:04;;;;;;;7.30;6.20;;;4.30;99.90;;;;;;6274844;22;20249;-52
2021/12/06 00:14:34;;;;;;;6.45;5.50;;;4.30;99.90;;;;;;6274085;22;20650;-52
2021/12/06 00:17:03;;;;;;;7.47;6.75;;;4.50;99.90;;;;;;6284257;22;20160;-51
2021/12/06 00:19:30;;;;;;;7.38;6.63;;;4.00;99.90;;;;;;6273675;22;20148;-52
2021/12/06 00:21:58;;;;;;;7.35;5.95;;;4.60;99.90;;;;;;6273003;22;20214;-52
2021/12/06 00:24:25;;;;;;;7.70;6.88;;;4.60;99.90;;;;;;6274236;22;20583;-52
2021/12/06 00:26:51;;;;;;;7.60;6.90;;;4.50;99.90;;;;;;6284282;22;20161;-52
2021/12/06 00:29:18;;;;;;;8.73;7.80;;;4.00;99.90;;;;;;6284942;22;20161;-52
2021/12/06 00:31:44;;;;;;;11.48;8.45;;;4.40;99.90;;;;;;6274416;22;20184;-51
2021/12/06 00:34:14;;;;;;;9.30;7.35;;;4.40;99.90;;;;;;6283156;22;20169;-52
2021/12/06 00:36:44;;;;;;;7.97;7.18;;;4.30;99.90;;;;;;6273154;22;20239;-51
2021/12/06 00:39:12;;;;;;;7.90;7.10;;;4.30;99.90;;;;;;6282077;22;20160;-52
2021/12/06 00:41:40;;;;;;;7.53;6.80;;;4.50;99.90;;;;;;6284259;22;20164;-52
2021/12/06 00:44:07;;;;;;;10.88;7.35;;;4.30;99.90;;;;;;6284433;22;20177;-52
2021/12/06 00:46:34;;;;;;;8.10;6.70;;;4.50;99.90;;;;;;6273887;22;20187;-51
2021/12/06 00:48:59;;;;;;;8.25;7.40;;;4.30;99.90;;;;;;6271608;22;20184;-51
2021/12/06 00:51:26;;;;;;;9.63;7.10;;;4.50;99.90;;;;;;6284170;22;20184;-52
2021/12/06 00:53:52;;;;;;;7.90;7.05;;;4.30;99.90;;;;;;6273072;22;20172;-51
2021/12/06 00:56:17;;;;;;;9.10;7.43;;;4.10;99.90;;;;;;6272233;22;20160;-51
2021/12/06 00:58:43;;;;;;;8.53;7.40;;;3.70;99.90;;;;;;6279409;22;20499;-51
2021/12/06 01:01:10;;;;;;;8.03;6.40;;;4.20;99.90;;;;;;6274194;22;20395;-52
2021/12/06 01:03:38;;;;;;;7.70;6.97;;;3.90;99.90;;;;;;6283148;22;20226;-51
2021/12/06 01:06:05;;;;;;;7.85;7.13;;;4.80;99.90;;;;;;6283468;22;20149;-52
2021/12/06 01:08:31;;;;;;;7.57;6.35;;;4.50;99.90;;;;;;6283385;22;20508;-52
2021/12/06 01:10:58;;;;;;;7.93;7.13;;;4.50;99.90;;;;;;6282984;22;20478;-51
2021/12/06 01:13:24;;;;;;;8.05;6.80;;;4.20;99.90;;;;;;6282570;22;20174;-52
2021/12/06 01:15:50;;;;;;;8.57;7.00;;;4.30;99.90;;;;;;6282819;22;20148;-52
2021/12/06 01:18:18;;;;;;;7.15;6.32;;;3.70;99.90;;;;;;6281885;22;20152;-51
2021/12/06 01:23:50;;;;;;;9.35;6.50;;;3.80;99.90;;;;;;6263520;22;20185;-52
2021/12/06 01:29:13;;;;;;;7.45;6.70;;;4.20;99.90;;;;;;6283643;22;20199;-51
2021/12/06 01:39:48;;;;;;;8.60;6.90;;;4.40;99.90;;;;;;6272998;22;20170;-51
2021/12/06 01:42:14;;;;;;;7.40;6.70;;;4.10;99.90;;;;;;6283188;22;20152;-51
2021/12/06 01:44:43;;;;;;;8.02;7.00;;;4.20;99.90;;;;;;6282169;22;20145;-52
2021/12/06 01:47:15;;;;;;;7.53;6.82;;;4.30;99.90;;;;;;6271494;22;20186;-51
2021/12/06 01:49:49;;;;;;;8.32;7.00;;;4.20;99.90;;;;;;6272843;22;20638;-51
2021/12/06 01:52:19;;;;;;;8.32;5.50;;;4.30;99.90;;;;;;6273252;22;20202;-51
2021/12/06 01:54:46;;;;;;;6.50;5.90;;;4.30;99.90;;;;;;6282360;22;20149;-51
2021/12/06 01:57:11;;;;;;;6.97;6.13;;;4.30;99.90;;;;;;6282744;22;20621;-52
2021/12/06 01:59:38;;;;;;;7.47;6.73;;;4.40;99.90;;;;;;6272952;22;20521;-52
2021/12/06 02:02:04;;;;;;;8.23;6.43;;;4.40;99.90;;;;;;6272569;22;20204;-52
2021/12/06 02:04:32;;;;;;;10.50;6.97;;;4.30;99.90;;;;;;6272859;22;20180;-51
2021/12/06 02:06:59;;;;;;;7.22;6.50;;;4.10;99.90;;;;;;6283154;22;20172;-51
2021/12/06 02:09:26;;;;;;;7.70;6.90;;;4.00;99.90;;;;;;6282976;22;20156;-51
2021/12/06 02:11:54;;;;;;;7.50;6.65;;;3.70;99.90;;;;;;6272206;22;20189;-51
2021/12/06 02:14:54;;;;;;;9.70;6.90;;;4.00;99.90;;;;;;6271417;22;20572;-52
2021/12/06 02:17:25;;;;;;;8.13;6.88;;;4.10;99.90;;;;;;6280465;22;20139;-52
2021/12/06 02:20:02;;;;;;;7.97;7.25;;;4.00;99.90;;;;;;6271791;22;20137;-51
2021/12/06 02:22:33;;;;;;;9.02;7.75;;;4.00;99.90;;;;;;6272788;22;20558;-52
2021/12/06 02:24:59;;;;;;;8.50;7.60;;;4.00;99.90;;;;;;6281599;22;20144;-51
2021/12/06 02:27:27;;;;;;;7.43;6.60;;;4.20;99.90;;;;;;6282553;22;20148;-52
2021/12/06 02:29:56;;;;;;;8.98;8.10;;;4.30;99.90;;;;;;6272078;22;20605;-52
2021/12/06 02:32:22;;;;;;;6.90;6.30;;;4.10;99.90;;;;;;6273251;22;20661;-52
2021/12/06 02:34:51;;;;;;;7.00;6.30;;;4.80;99.90;;;;;;6282090;22;20148;-52
2021/12/06 02:37:20;;;;;;;7.78;6.80;;;4.20;99.90;;;;;;6270867;22;20202;-51
2021/12/06 02:39:46;;;;;;;7.65;6.10;;;4.20;99.90;;;;;;6282584;22;20167;-52
2021/12/06 02:42:15;;;;;;;7.60;6.40;;;4.10;99.90;;;;;;6283364;22;20558;-52
2021/12/06 02:44:42;;;;;;;8.05;7.25;;;4.20;99.90;;;;;;6270808;22;20920;-51
2021/12/06 02:47:08;;;;;;;8.45;7.55;;;4.20;99.90;;;;;;6272318;22;20499;-51
2021/12/06 02:49:34;;;;;;;8.32;7.53;;;4.40;99.90;;;;;;6282730;22;20213;-52
2021/12/06 02:52:00;;;;;;;7.57;6.85;;;4.40;99.90;;;;;;6282590;22;20230;-51
2021/12/06 02:54:27;;;;;;;7.47;6.78;;;4.10;99.90;;;;;;6270906;22;20176;-51
2021/12/06 02:57:08;;;;;;;7.05;6.15;;;4.30;99.90;;;;;;6281085;22;20149;-52
2021/12/06 02:59:35;;;;;;;8.55;7.28;;;4.10;99.90;;;;;;6272423;22;20134;-51
2021/12/06 03:02:06;;;;;;;7.25;6.45;;;4.10;99.90;;;;;;6281678;22;20152;-52
2021/12/06 03:04:32;;;;;;;7.40;6.70;;;4.10;99.90;;;;;;6272483;22;20149;-51
2021/12/06 03:06:59;;;;;;;8.70;7.70;;;4.30;99.90;;;;;;6281820;22;20499;-52
2021/12/06 03:09:28;;;;;;;10.55;7.25;;;4.30;99.90;;;;;;6272731;22;20725;-52
2021/12/06 03:12:00;;;;;;;8.40;7.50;;;4.30;99.90;;;;;;6271984;22;20176;-52
2021/12/06 03:14:31;;;;;;;9.40;7.30;;;4.50;99.90;;;;;;6272019;22;20561;-52
2021/12/06 03:16:58;;;;;;;9.23;7.30;;;4.50;99.90;;;;;;6281595;22;20587;-52
2021/12/06 03:19:24;;;;;;;7.88;7.07;;;4.30;99.90;;;;;;6271576;22;20162;-52
2021/12/06 03:21:51;;;;;;;8.85;6.75;;;4.40;99.90;;;;;;6283448;22;20163;-51
2021/12/06 03:24:18;;;;;;;8.98;6.55;;;4.20;99.90;;;;;;6273105;22;20605;-52
2021/12/06 03:26:45;;;;;;;8.23;7.28;;;4.20;99.90;;;;;;6283728;22;20152;-52
2021/12/06 03:29:12;;;;;;;9.02;8.23;;;4.20;99.90;;;;;;6274754;22;20203;-52
2021/12/06 03:31:38;;;;;;;8.65;7.72;;;3.90;99.90;;;;;;6285005;22;20172;-52
2021/12/06 03:34:05;;;;;;;8.05;7.22;;;3.50;99.90;;;;;;6273975;22;20179;-52
2021/12/06 03:36:35;;;;;;;9.38;8.30;;;4.30;99.90;;;;;;6272642;22;20152;-52
2021/12/06 03:39:10;;;;;;;10.55;8.65;;;4.10;99.90;;;;;;6283275;22;20148;-52
2021/12/06 03:41:36;;;;;;;12.07;10.25;;;4.10;99.90;;;;;;6274129;22;20167;-52
2021/12/06 03:44:02;;;;;;;13.35;11.95;;;4.30;99.90;;;;;;6284148;22;20224;-51
2021/12/06 03:46:31;;;;;;;13.82;12.43;;;4.30;99.90;;;;;;6284493;22;20520;-52
2021/12/06 03:48:58;;;;;;;13.50;12.20;;;4.40;99.90;;;;;;6284723;22;20164;-52
2021/12/06 03:51:24;;;;;;;14.50;13.00;;;4.30;99.90;;;;;;6283782;22;20176;-52
2021/12/06 03:53:50;;;;;;;14.05;12.55;;;4.50;99.90;;;;;;6274050;22;20175;-51
2021/12/06 03:56:21;;;;;;;14.50;13.00;;;4.60;99.90;;;;;;6282799;22;20152;-51
2021/12/06 03:58:47;;;;;;;16.20;13.90;;;4.50;99.90;;;;;;6284664;22;20129;-52
2021/12/06 04:01:13;;;;;;;19.30;16.55;;;4.90;99.90;;;;;;6274148;22;20241;-51
2021/12/06 04:03:41;;;;;;;17.23;15.00;;;4.80;99.90;;;;;;6284609;22;20174;-52
2021/12/06 04:06:07;;;;;;;17.65;15.63;;;4.80;99.90;;;;;;6284099;22;20156;-51
2021/12/06 04:08:34;;;;;;;18.80;15.30;;;4.40;99.90;;;;;;6273861;22;20794;-51
2021/12/06 04:10:59;;;;;;;18.25;15.50;;;4.70;99.90;;;;;;6272823;22;20195;-52
2021/12/06 04:13:25;;;;;;;18.90;16.47;;;4.00;99.90;;;;;;6271114;22;20182;-52
2021/12/06 04:15:51;;;;;;;18.30;16.20;;;4.90;99.90;;;;;;6270818;22;20395;-51
2021/12/06 04:18:18;;;;;;;21.40;17.15;;;5.00;99.90;;;;;;6273050;22;20183;-52
2021/12/06 04:20:44;;;;;;;20.00;17.25;;;4.90;99.90;;;;;;6274773;22;20167;-52
2021/12/06 04:23:12;;;;;;;18.80;16.33;;;4.60;99.90;;;;;;6283835;22;20177;-52
2021/12/06 04:25:38;;;;;;;20.95;17.63;;;4.50;99.90;;;;;;6273956;22;20187;-52
2021/12/06 04:28:07;;;;;;;18.85;16.55;;;4.40;99.90;;;;;;6271265;22;20586;-51
2021/12/06 04:30:36;;;;;;;21.80;17.65;;;4.80;99.90;;;;;;6273460;22;20178;-51
2021/12/06 04:33:03;;;;;;;19.92;16.45;;;4.70;99.90;;;;;;6284420;22;20173;-51
2021/12/06 04:35:29;;;;;;;17.88;15.90;;;4.70;99.90;;;;;;6284355;22;20154;-52
2021/12/06 04:37:55;;;;;;;22.38;17.52;;;4.80;99.90;;;;;;6283908;22;20594;-51
2021/12/06 04:40:21;;;;;;;18.70;15.73;;;5.10;99.90;;;;;;6273348;22;20215;-52
2021/12/06 04:42:47;;;;;;;25.03;19.33;;;4.70;99.90;;;;;;6273715;22;20183;-51
2021/12/06 04:45:15;;;;;;;20.83;17.50;;;4.80;99.90;;;;;;6272945;22;20163;-52
2021/12/06 04:47:42;;;;;;;19.45;17.23;;;4.70;99.90;;;;;;6272105;22;20590;-52
2021/12/06 04:50:09;;;;;;;20.45;17.13;;;4.10;99.90;;;;;;6273688;22;20160;-52
2021/12/06 04:52:37;;;;;;;24.27;16.85;;;4.70;99.90;;;;;;6283603;22;20218;-51
2021/12/06 04:55:10;;;;;;;20.63;16.60;;;4.30;99.90;;;;;;6284271;22;20247;-52
2021/12/06 04:57:40;;;;;;;22.38;16.70;;;4.60;99.90;;;;;;6273657;22;20536;-51
2021/12/06 05:00:14;;;;;;;19.50;14.52;;;4.60;99.90;;;;;;6284096;22;20175;-51
2021/12/06 05:02:41;;;;;;;21.55;17.95;;;5.00;99.90;;;;;;6283305;22;20171;-52
2021/12/06 05:05:15;;;;;;;17.63;15.55;;;4.80;99.90;;;;;;6281113;22;20274;-52
2021/12/06 05:07:49;;;;;;;18.35;14.48;;;4.80;99.90;;;;;;6273425;22;20149;-51
2021/12/06 05:10:16;;;;;;;18.85;15.55;;;4.70;99.90;;;;;;6273147;22;20159;-51
2021/12/06 05:12:42;;;;;;;19.30;14.80;;;4.00;99.90;;;;;;6283628;22;20168;-51
2021/12/06 05:15:08;;;;;;;19.00;15.55;;;4.80;99.90;;;;;;6281155;22;20179;-51
2021/12/06 05:17:34;;;;;;;24.98;16.70;;;4.90;99.90;;;;;;6283657;22;20150;-51
2021/12/06 05:20:00;;;;;;;19.88;17.38;;;5.00;99.90;;;;;;6281969;22;20173;-51
2021/12/06 05:22:28;;;;;;;19.75;15.90;;;4.40;99.90;;;;;;6273218;22;20535;-51
2021/12/06 05:24:54;;;;;;;20.10;15.10;;;4.60;99.90;;;;;;6280823;22;20156;-51
2021/12/06 05:27:26;;;;;;;18.30;14.70;;;5.20;99.90;;;;;;6272946;22;20157;-51
2021/12/06 05:29:56;;;;;;;17.75;14.60;;;5.20;99.90;;;;;;6284358;22;20130;-51
2021/12/06 05:32:25;;;;;;;17.48;15.18;;;4.70;99.90;;;;;;6282906;22;20301;-51
2021/12/06 05:34:57;;;;;;;16.30;14.02;;;4.40;99.90;;;;;;6272923;22;20165;-51
2021/12/06 05:37:23;;;;;;;15.65;13.93;;;4.80;99.90;;;;;;6273552;22;20161;-51
2021/12/06 05:39:49;;;;;;;18.85;14.73;;;5.00;99.90;;;;;;6272235;22;20161;-51
2021/12/06 05:42:15;;;;;;;17.70;13.80;;;4.90;99.90;;;;;;6273294;22;20214;-51
2021/12/06 05:44:41;;;;;;;19.92;14.25;;;5.10;99.90;;;;;;6271499;22;20231;-51
2021/12/06 05:47:07;;;;;;;16.20;14.20;;;4.70;99.90;;;;;;6271181;22;20187;-51
2021/12/06 05:49:33;;;;;;;17.25;14.23;;;5.00;99.90;;;;;;6271388;22;20392;-51
2021/12/06 05:51:59;;;;;;;17.83;15.63;;;4.20;99.90;;;;;;6282820;22;20213;-51
2021/12/06 05:54:25;;;;;;;18.87;14.70;;;4.90;99.90;;;;;;6282959;22;20454;-51
2021/12/06 05:56:51;;;;;;;16.45;13.63;;;4.60;99.90;;;;;;6282527;22;20154;-51
2021/12/06 05:59:17;;;;;;;15.77;12.48;;;4.70;99.90;;;;;;6284237;22;20153;-52
2021/12/06 06:01:45;;;;;;;17.90;13.38;;;4.50;99.90;;;;;;6273821;22;20157;-52
2021/12/06 06:04:11;;;;;;;16.23;12.98;;;4.20;99.90;;;;;;6284497;22;20514;-52
2021/12/06 06:06:37;;;;;;;17.83;13.40;;;5.00;99.90;;;;;;6284258;22;20150;-51
2021/12/06 06:09:05;;;;;;;18.92;14.10;;;4.90;99.90;;;;;;6282876;22;20149;-52
2021/12/06 06:11:34;;;;;;;17.67;13.05;;;4.70;99.90;;;;;;6272439;22;20196;-52
2021/12/06 06:14:03;;;;;;;17.25;14.25;;;4.70;99.90;;;;;;6273383;22;20468;-52
2021/12/06 06:16:33;;;;;;;20.45;15.02;;;4.80;99.90;;;;;;6273838;22;20159;-52
2021/12/06 06:18:59;;;;;;;17.58;13.45;;;4.90;99.90;;;;;;6284036;22;20159;-52
2021/12/06 06:21:25;;;;;;;17.42;13.68;;;4.90;99.90;;;;;;6280949;22;20151;-52
2021/12/06 06:23:51;;;;;;;18.92;14.23;;;4.80;99.90;;;;;;6271828;22;20193;-53
2021/12/06 06:26:17;;;;;;;18.25;13.40;;;5.10;99.90;;;;;;6283846;22;20164;-53
2021/12/06 06:28:43;;;;;;;18.10;15.40;;;4.40;99.90;;;;;;6272273;22;20157;-54
2021/12/06 06:31:08;;;;;;;19.70;13.97;;;4.90;99.90;;;;;;6281482;22;20183;-54
2021/12/06 06:33:34;;;;;;;20.03;15.70;;;4.60;99.90;;;;;;6282746;22;20921;-53
2021/12/06 06:36:00;;;;;;;18.37;14.07;;;4.60;99.90;;;;;;6280705;22;20178;-52
2021/12/06 06:38:26;;;;;;;14.77;12.47;;;4.80;99.90;;;;;;6270219;22;20158;-52
2021/12/06 06:40:52;;;;;;;18.03;13.60;;;5.00;99.90;;;;;;6283616;22;20386;-52
2021/12/06 06:43:18;;;;;;;18.25;14.40;;;4.90;99.90;;;;;;6282617;22;20411;-53
2021/12/06 06:45:45;;;;;;;17.63;14.38;;;4.70;99.90;;;;;;6282842;22;20148;-52
2021/12/06 06:48:11;;;;;;;18.63;14.52;;;4.60;99.90;;;;;;6282569;22;20153;-51
2021/12/06 06:50:38;;;;;;;15.15;13.27;;;4.80;99.90;;;;;;6281007;22;20190;-52
2021/12/06 06:53:04;;;;;;;16.52;13.70;;;5.10;99.90;;;;;;6271769;22;20173;-53
2021/12/06 06:55:30;;;;;;;19.40;14.45;;;4.40;99.90;;;;;;6281800;22;20153;-52
2021/12/06 06:57:56;;;;;;;17.90;14.70;;;5.50;99.90;;;;;;6272685;22;20488;-53
2021/12/06 07:00:25;;;;;;;21.27;14.43;;;4.90;99.90;;;;;;6272942;22;20452;-52
2021/12/06 07:02:51;;;;;;;15.43;12.90;;;5.00;99.90;;;;;;6284838;22;20172;-52
2021/12/06 07:05:16;;;;;;;29.70;15.57;;;5.20;99.90;;;;;;6283392;22;20159;-53
2021/12/06 07:07:42;;;;;;;18.13;14.40;;;4.30;99.90;;;;;;6273590;22;20271;-52
2021/12/06 07:10:09;;;;;;;21.65;15.52;;;5.10;99.90;;;;;;6284679;22;20231;-48
2021/12/06 07:12:43;;;;;;;21.27;15.38;;;5.10;99.90;;;;;;6274260;22;20280;-51
2021/12/06 07:15:11;;;;;;;18.25;13.43;;;5.20;99.90;;;;;;6272337;22;20160;-51
2021/12/06 07:17:41;;;;;;;21.02;14.77;;;5.30;99.90;;;;;;6272983;22;20150;-54
2021/12/06 07:20:08;;;;;;;18.50;13.52;;;5.10;99.90;;;;;;6274189;22;20150;-53
2021/12/06 07:22:34;;;;;;;19.05;13.90;;;5.30;99.90;;;;;;6273942;22;20251;-53
2021/12/06 07:24:59;;;;;;;23.80;14.90;;;5.20;99.90;;;;;;6282437;22;20198;-53
2021/12/06 07:27:25;;;;;;;20.00;13.87;;;5.00;99.90;;;;;;6283740;22;20159;-53
2021/12/06 07:29:51;;;;;;;20.73;14.40;;;4.70;99.90;;;;;;6282712;22;20196;-52
2021/12/06 07:32:17;;;;;;;23.43;15.70;;;5.20;99.90;;;;;;6273893;22;20415;-53
2021/12/06 07:34:42;;;;;;;18.37;13.13;;;4.90;99.90;;;;;;6284716;22;20225;-53
2021/12/06 07:37:08;;;;;;;19.97;15.20;;;5.30;99.90;;;;;;6275197;22;20181;-53
2021/12/06 07:39:34;;;;;;;19.80;15.17;;;5.30;99.90;;;;;;6285572;22;20462;-51
2021/12/06 07:42:00;;;;;;;17.67;13.47;;;4.80;99.90;;;;;;6275739;22;20161;-52
2021/12/06 07:44:26;;;;;;;20.70;14.00;;;5.10;99.90;;;;;;6276221;22;20180;-52
2021/12/06 07:46:52;;;;;;;20.30;14.15;;;5.00;99.90;;;;;;6285530;22;20636;-53
2021/12/06 07:49:19;;;;;;;20.20;14.50;;;5.30;99.90;;;;;;6284639;22;20154;-55
2021/12/06 07:51:45;;;;;;;20.85;14.52;;;5.10;99.90;;;;;;6284611;22;20427;-50
2021/12/06 07:54:12;;;;;;;21.27;15.17;;;4.60;99.90;;;;;;6273752;22;20183;-52
2021/12/06 07:56:39;;;;;;;18.25;13.77;;;4.50;99.90;;;;;;6285338;22;20467;-52
2021/12/06 07:59:05;;;;;;;17.08;12.55;;;5.10;99.90;;;;;;6285431;22;20580;-51
2021/12/06 08:01:31;;;;;;;15.68;11.90;;;5.20;99.90;;;;;;6285936;22;20237;-51
2021/12/06 08:03:59;;;;;;;17.07;12.20;;;5.20;99.90;;;;;;6284811;22;20620;-50
2021/12/06 08:06:25;;;;;;;15.75;11.85;;;4.60;99.90;;;;;;6283986;22;20236;-50
2021/12/06 08:08:58;;;;;;;15.90;11.55;;;5.10;99.90;;;;;;6283053;22;20158;-51
2021/12/06 08:11:26;;;;;;;18.52;13.57;;;5.20;99.90;;;;;;6272337;22;20584;-51
2021/12/06 08:13:56;;;;;;;17.17;12.60;;;5.40;99.90;;;;;;6282141;22;20166;-51
2021/12/06 08:16:38;;;;;;;17.70;14.20;;;5.50;99.90;;;;;;6272441;22;20157;-53
2021/12/06 08:19:04;;;;;;;18.55;14.55;;;5.30;99.90;;;;;;6273023;22;20540;-53
2021/12/06 08:21:30;;;;;;;19.35;14.63;;;5.00;99.90;;;;;;6283502;22;20188;-53
2021/12/06 08:23:58;;;;;;;17.33;12.95;;;5.10;99.90;;;;;;6282792;22;20173;-52
2021/12/06 08:26:28;;;;;;;17.92;13.18;;;5.30;99.90;;;;;;6273665;22;20165;-52
2021/12/06 08:28:55;;;;;;;15.43;12.88;;;5.00;99.90;;;;;;6283530;22;20206;-52
2021/12/06 08:31:22;;;;;;;17.65;13.25;;;4.70;99.90;;;;;;6283296;22;20631;-52
2021/12/06 08:33:52;;;;;;;17.92;12.95;;;5.20;99.90;;;;;;6283758;22;20169;-52
2021/12/06 08:36:19;;;;;;;17.58;13.60;;;5.00;99.90;;;;;;6283363;22;20592;-53
2021/12/06 08:38:46;;;;;;;17.75;14.18;;;5.10;99.90;;;;;;6284202;22;20505;-52
2021/12/06 08:41:17;;;;;;;17.17;12.85;;;5.30;99.90;;;;;;6273431;22;20158;-53
2021/12/06 08:43:44;;;;;;;17.58;12.60;;;5.50;99.90;;;;;;6272087;22;20178;-52
2021/12/06 08:46:22;;;;;;;15.93;11.60;;;5.30;99.90;;;;;;6282141;22;20150;-52
2021/12/06 08:48:50;;;;;;;15.13;11.80;;;5.30;99.90;;;;;;6282405;22;20153;-51
2021/12/06 08:51:29;;;;;;;15.85;12.18;;;5.30;99.90;;;;;;6282493;22;20216;-51
2021/12/06 08:53:55;;;;;;;15.95;11.13;;;5.20;99.90;;;;;;6283384;22;20660;-52
2021/12/06 08:56:21;;;;;;;19.25;13.10;;;5.40;99.90;;;;;;6282204;22;20158;-51
2021/12/06 08:58:48;;;;;;;16.90;12.63;;;5.50;99.90;;;;;;6271473;22;20165;-52
2021/12/06 09:01:14;;;;;;;14.70;12.00;;;5.30;99.90;;;;;;6272692;22;20508;-52
2021/12/06 09:03:40;;;;;;;16.67;12.13;;;5.60;99.90;;;;;;6272261;22;20544;-50
2021/12/06 09:06:08;;;;;;;16.13;11.27;;;5.80;99.90;;;;;;6283540;22;20157;-50
2021/12/06 09:08:34;;;;;;;15.18;11.38;;;5.50;99.90;;;;;;6282419;22;20236;-51
2021/12/06 09:11:00;;;;;;;14.60;10.55;;;5.60;99.90;;;;;;6273389;22;20189;-51
2021/12/06 09:13:28;;;;;;;15.85;11.82;;;5.60;99.90;;;;;;6272166;22;20175;-52
2021/12/06 09:15:56;;;;;;;14.55;11.52;;;5.80;99.90;;;;;;6283128;22;20624;-51
2021/12/06 09:18:22;;;;;;;16.20;10.15;;;5.70;99.90;;;;;;6272793;22;20167;-51
2021/12/06 09:20:50;;;;;;;12.25;9.85;;;5.90;99.90;;;;;;6271888;22;20240;-51
2021/12/06 09:23:17;;;;;;;13.45;10.90;;;6.10;99.90;;;;;;6271729;22;20603;-50
2021/12/06 09:25:45;;;;;;;13.15;9.40;;;6.20;99.90;;;;;;6271129;22;20167;-51
2021/12/06 09:28:14;;;;;;;11.85;9.00;;;6.50;99.90;;;;;;6272175;22;20156;-51
2021/12/06 09:30:40;;;;;;;14.18;9.90;;;6.50;99.90;;;;;;6283448;22;20510;-51
2021/12/06 09:33:09;;;;;;;12.63;9.75;;;6.60;99.90;;;;;;6281826;22;20707;-52
2021/12/06 09:35:39;;;;;;;13.30;10.07;;;6.00;99.90;;;;;;6282740;22;20155;-52
2021/12/06 09:38:05;;;;;;;11.15;8.90;;;6.10;99.90;;;;;;6282994;22;20218;-53
2021/12/06 09:40:36;;;;;;;12.45;9.98;;;6.70;99.90;;;;;;6283344;22;20196;-52
2021/12/06 09:43:05;;;;;;;12.20;9.50;;;7.10;99.90;;;;;;6282677;22;20246;-52
2021/12/06 09:45:31;;;;;;;16.58;10.63;;;6.00;99.90;;;;;;6283197;22;20159;-52
2021/12/06 09:48:00;;;;;;;12.48;9.63;;;6.50;99.90;;;;;;6281383;22;20162;-51
2021/12/06 09:50:30;;;;;;;14.90;9.95;;;6.20;99.90;;;;;;6271801;22;20199;-52
2021/12/06 09:52:58;;;;;;;11.38;9.20;;;6.70;99.90;;;;;;6272264;22;20631;-51
2021/12/06 09:55:26;;;;;;;11.60;8.80;;;6.50;99.90;;;;;;6273049;22;20180;-51
2021/12/06 09:57:53;;;;;;;14.18;10.05;;;6.40;99.90;;;;;;6272587;22;20507;-51
2021/12/06 10:00:22;;;;;;;13.07;9.70;;;6.40;99.90;;;;;;6272998;22;20594;-52
2021/12/06 10:02:48;;;;;;;11.02;9.30;;;6.40;99.90;;;;;;6282503;22;20167;-52
2021/12/06 10:05:14;;;;;;;13.02;9.75;;;6.00;99.90;;;;;;6282269;22;20265;-52
2021/12/06 10:07:40;;;;;;;12.38;10.00;;;6.20;99.90;;;;;;6271442;22;20240;-53
2021/12/06 10:10:10;;;;;;;16.20;10.93;;;6.40;99.90;;;;;;6271753;22;20455;-51
2021/12/06 10:12:36;;;;;;;12.20;9.10;;;6.50;99.90;;;;;;6282419;22;20461;-50
2021/12/06 10:15:04;;;;;;;14.23;9.90;;;6.40;99.90;;;;;;6282760;22;20148;-51
2021/12/06 10:17:34;;;;;;;13.90;9.95;;;6.70;99.90;;;;;;6271463;22;20160;-51
2021/12/06 10:20:00;;;;;;;13.65;9.30;;;6.20;99.90;;;;;;6282465;22;20194;-50
2021/12/06 10:22:27;;;;;;;11.07;8.57;;;6.30;99.90;;;;;;6282449;22;20156;-49
2021/12/06 10:24:58;;;;;;;10.80;7.00;;;6.80;99.90;;;;;;6282287;22;20152;-50
2021/12/06 10:27:25;;;;;;;9.77;7.78;;;6.90;99.90;;;;;;6271925;22;20159;-52
2021/12/06 10:30:03;;;;;;;14.90;8.50;;;6.90;99.90;;;;;;6282770;22;20210;-52
2021/12/06 10:32:32;;;;;;;11.23;7.88;;;7.00;99.90;;;;;;6281923;22;20198;-52
2021/12/06 10:35:03;;;;;;;9.45;7.30;;;6.70;99.90;;;;;;6282502;22;20599;-52
2021/12/06 10:37:34;;;;;;;10.00;7.97;;;6.90;99.90;;;;;;6271126;22;20168;-51
2021/12/06 10:40:01;;;;;;;11.15;8.52;;;7.20;99.90;;;;;;6272160;22;20156;-52
2021/12/06 10:42:40;;;;;;;10.27;7.13;;;7.20;99.90;;;;;;6282822;22;20176;-53
2021/12/06 10:45:18;;;;;;;9.95;7.55;;;7.40;99.90;;;;;;6271566;22;20490;-53
2021/12/06 10:48:13;;;;;;;11.23;7.72;;;7.30;99.90;;;;;;6282375;22;20198;-51
2021/12/06 10:50:51;;;;;;;15.75;7.22;;;7.10;99.90;;;;;;6281672;22;20268;-51
2021/12/06 10:53:20;;;;;;;8.65;6.72;;;7.40;99.90;;;;;;6281955;22;20254;-52
2021/12/06 10:55:49;;;;;;;9.00;6.90;;;7.60;99.90;;;;;;6280556;22;20157;-52
2021/12/06 10:58:18;;;;;;;7.25;5.32;;;7.70;99.90;;;;;;6282204;22;20459;-52
2021/12/06 11:01:00;;;;;;;7.65;5.70;;;7.90;99.90;;;;;;6282377;22;20145;-52
2021/12/06 11:03:45;;;;;;;12.20;6.80;;;7.70;99.90;;;;;;6282417;22;20222;-52
2021/12/06 11:06:41;;;;;;;13.05;5.40;;;7.50;99.90;;;;;;6282099;22;20147;-52
2021/12/06 11:09:08;;;;;;;6.05;5.03;;;7.70;99.90;;;;;;6259432;22;20156;-52
2021/12/06 11:11:38;;;;;;;7.03;5.80;;;6.70;99.90;;;;;;6282011;22;20230;-52
2021/12/06 11:14:13;;;;;;;13.68;5.35;;;7.40;99.90;;;;;;6282510;22;20168;-52
2021/12/06 11:16:46;;;;;;;10.60;5.82;;;7.40;99.90;;;;;;6282423;22;20156;-52
2021/12/06 11:19:16;;;;;;;10.80;6.88;;;7.50;99.90;;;;;;6271723;22;20161;-52
2021/12/06 11:21:46;;;;;;;7.07;5.65;;;7.30;99.90;;;;;;6271724;22;20598;-52
2021/12/06 11:24:18;;;;;;;6.65;6.05;;;7.20;99.90;;;;;;6282481;22;20247;-52
2021/12/06 11:27:02;;;;;;;7.00;5.53;;;7.20;99.90;;;;;;6282159;22;20168;-52
2021/12/06 11:29:36;;;;;;;6.63;5.03;;;7.10;99.90;;;;;;6272202;22;20480;-52
2021/12/06 11:32:07;;;;;;;6.50;5.28;;;7.10;99.90;;;;;;6282079;22;20160;-52
2021/12/06 11:34:49;;;;;;;8.15;5.28;;;7.30;99.90;;;;;;6281625;22;20140;-52
2021/12/06 11:37:37;;;;;;;7.20;5.43;;;7.30;99.90;;;;;;6271835;22;20151;-52
2021/12/06 11:40:08;;;;;;;9.93;6.60;;;7.20;99.90;;;;;;6282149;22;20209;-52
2021/12/06 11:42:59;;;;;;;11.30;6.65;;;6.50;99.90;;;;;;6282323;22;20172;-52
2021/12/06 11:45:31;;;;;;;7.68;5.13;;;7.20;99.90;;;;;;6271807;22;20526;-52
2021/12/06 11:48:38;;;;;;;5.65;4.97;;;7.00;99.90;;;;;;6283261;22;20212;-52
2021/12/06 11:51:04;;;;;;;7.18;5.35;;;7.20;99.90;;;;;;6283751;22;20521;-53
2021/12/06 11:53:37;;;;;;;7.07;5.30;;;7.00;99.90;;;;;;6274053;22;20279;-52
2021/12/06 11:56:15;;;;;;;6.68;5.30;;;7.00;99.90;;;;;;6283616;22;20145;-52
2021/12/06 11:58:46;;;;;;;5.63;4.93;;;7.30;99.90;;;;;;6284217;22;20160;-52
2021/12/06 12:01:19;;;;;;;6.80;4.47;;;7.10;99.90;;;;;;6283997;22;20598;-52
2021/12/06 12:03:48;;;;;;;8.48;5.28;;;7.40;99.90;;;;;;6284086;22;20219;-52
2021/12/06 12:06:22;;;;;;;9.57;4.63;;;7.40;99.90;;;;;;6284765;22;20491;-52
2021/12/06 12:08:59;;;;;;;4.55;3.90;;;7.80;99.90;;;;;;6283873;22;20167;-52
2021/12/06 12:11:25;;;;;;;5.22;4.13;;;7.70;99.90;;;;;;6273115;22;20211;-51
2021/12/06 12:13:51;;;;;;;4.93;3.30;;;8.00;99.90;;;;;;6284174;22;20168;-52
2021/12/06 12:16:20;;;;;;;8.37;4.90;;;7.90;99.90;;;;;;6281054;22;20140;-52
2021/12/06 12:18:47;;;;;;;7.85;4.78;;;8.40;99.90;;;;;;6272979;22;20685;-52
2021/12/06 12:21:14;;;;;;;5.63;4.55;;;7.90;99.70;;;;;;6283339;22;20145;-52
2021/12/06 12:23:42;;;;;;;8.60;6.95;;;7.80;99.90;;;;;;6283675;22;20178;-53
2021/12/06 12:26:13;;;;;;;7.43;4.22;;;7.50;99.80;;;;;;6283606;22;20148;-53
2021/12/06 12:29:11;;;;;;;4.53;4.03;;;7.50;99.90;;;;;;6283806;22;20467;-53
2021/12/06 12:31:37;;;;;;;5.38;4.05;;;7.80;99.90;;;;;;6284372;22;20168;-53
2021/12/06 12:34:03;;;;;;;5.53;4.33;;;7.60;99.90;;;;;;6282989;22;20508;-53
2021/12/06 12:36:29;;;;;;;4.73;4.23;;;7.30;99.90;;;;;;6283403;22;20152;-52
2021/12/06 12:38:56;;;;;;;5.37;4.20;;;7.80;99.90;;;;;;6283699;22;20353;-52
2021/12/06 12:41:24;;;;;;;7.60;4.40;;;7.40;99.90;;;;;;6283464;22;20842;-52
2021/12/06 12:43:59;;;;;;;4.80;3.95;;;7.50;99.90;;;;;;6273995;22;20176;-52
2021/12/06 12:46:40;;;;;;;5.25;3.45;;;7.30;99.90;;;;;;6284808;22;20141;-51
2021/12/06 12:49:19;;;;;;;3.97;3.40;;;7.30;99.90;;;;;;6273028;22;20187;-51
2021/12/06 12:51:52;;;;;;;6.30;4.20;;;7.30;99.90;;;;;;6273229;22;20603;-52
2021/12/06 12:54:28;;;;;;;4.07;3.67;;;7.30;99.90;;;;;;6283284;22;20219;-53
2021/12/06 12:57:14;;;;;;;4.72;3.00;;;7.10;99.90;;;;;;6284190;22;20480;-54
2021/12/06 12:59:52;;;;;;;5.53;5.03;;;7.50;99.90;;;;;;6284056;22;20148;-53
2021/12/06 13:02:29;;;;;;;6.57;3.70;;;7.10;99.60;;;;;;6273809;22;20157;-51
2021/12/06 13:04:57;;;;;;;3.55;3.25;;;7.30;99.90;;;;;;6285469;22;20223;-50
2021/12/06 13:08:02;;;;;;;7.30;3.80;;;7.50;99.90;;;;;;6284894;22;20159;-52
2021/12/06 13:10:40;;;;;;;6.90;3.72;;;7.60;99.50;;;;;;6284801;22;20143;-53